sensor_id;sensor_type;location;lat;lon;timestamp;temperature;humidity
34303;DHT22;20785;50.020;19.916;2022-11-11T00:01:43;8.66;74.39
34303;DHT22;20785;50.020;19.916;2022-11-11T00:08:04;8.60;74.27
34303;DHT22;20785;50.020;19.916;2022-11-11T00:14:23;8.49;74.07
34303;DHT22;20785;50.020;19.916;2022-11-11T00:20:43;8.42;73.96
34303;DHT22;20785;50.020;19.916;2022-11-11T00:27:21;8.34;73.86
34303;DHT22;20785;50.020;19.916;2022-11-11T00:33:41;8.25;73.78
34303;DHT22;20785;50.020;19.916;2022-11-11T00:40:00;8.18;73.56
34303;DHT22;20785;50.020;19.916;2022-11-11T00:46:20;8.14;73.59
34303;DHT22;20785;50.020;19.916;2022-11-11T00:52:58;8.18;73.62
34303;DHT22;20785;50.020;19.916;2022-11-11T00:59:18;8.18;73.54
34303;DHT22;20785;50.020;19.916;2022-11-11T01:05:38;8.17;73.44
34303;DHT22;20785;50.020;19.916;2022-11-11T01:11:58;8.10;73.20
34303;DHT22;20785;50.020;19.916;2022-11-11T01:18:24;7.97;73.06
34303;DHT22;20785;50.020;19.916;2022-11-11T01:24:51;7.94;73.13
34303;DHT22;20785;50.020;19.916;2022-11-11T01:31:15;7.90;73.06
34303;DHT22;20785;50.020;19.916;2022-11-11T01:37:35;7.88;73.08
34303;DHT22;20785;50.020;19.916;2022-11-11T01:43:54;7.85;73.09
34303;DHT22;20785;50.020;19.916;2022-11-11T01:50:14;7.82;72.93
34303;DHT22;20785;50.020;19.916;2022-11-11T01:56:34;7.79;72.88
34303;DHT22;20785;50.020;19.916;2022-11-11T02:02:58;7.82;72.75
34303;DHT22;20785;50.020;19.916;2022-11-11T02:09:21;7.88;72.79
34303;DHT22;20785;50.020;19.916;2022-11-11T02:15:41;7.93;73.09
34303;DHT22;20785;50.020;19.916;2022-11-11T02:22:01;8.04;73.23
34303;DHT22;20785;50.020;19.916;2022-11-11T02:28:24;8.13;73.05
34303;DHT22;20785;50.020;19.916;2022-11-11T02:34:45;8.17;73.01
34303;DHT22;20785;50.020;19.916;2022-11-11T02:41:05;8.21;72.92
34303;DHT22;20785;50.020;19.916;2022-11-11T02:47:43;8.28;72.91
34303;DHT22;20785;50.020;19.916;2022-11-11T02:54:02;8.32;72.89
34303;DHT22;20785;50.020;19.916;2022-11-11T03:00:22;8.37;72.89
34303;DHT22;20785;50.020;19.916;2022-11-11T03:06:42;8.44;72.97
34303;DHT22;20785;50.020;19.916;2022-11-11T03:13:01;8.51;72.96
34303;DHT22;20785;50.020;19.916;2022-11-11T03:19:21;8.57;72.91
34303;DHT22;20785;50.020;19.916;2022-11-11T03:25:44;8.63;72.95
34303;DHT22;20785;50.020;19.916;2022-11-11T03:32:06;8.66;72.99
34303;DHT22;20785;50.020;19.916;2022-11-11T03:38:25;8.66;73.08
34303;DHT22;20785;50.020;19.916;2022-11-11T03:44:45;8.72;73.23
34303;DHT22;20785;50.020;19.916;2022-11-11T03:51:05;8.81;73.46
34303;DHT22;20785;50.020;19.916;2022-11-11T03:57:24;8.87;73.42
34303;DHT22;20785;50.020;19.916;2022-11-11T04:03:50;8.90;73.47
34303;DHT22;20785;50.020;19.916;2022-11-11T04:10:28;8.93;73.56
34303;DHT22;20785;50.020;19.916;2022-11-11T04:16:48;8.96;73.65
34303;DHT22;20785;50.020;19.916;2022-11-11T04:23:08;9.01;73.73
34303;DHT22;20785;50.020;19.916;2022-11-11T04:29:28;9.03;73.79
34303;DHT22;20785;50.020;19.916;2022-11-11T04:35:49;8.97;73.82
34303;DHT22;20785;50.020;19.916;2022-11-11T04:42:09;8.93;74.01
34303;DHT22;20785;50.020;19.916;2022-11-11T04:48:28;8.96;74.16
34303;DHT22;20785;50.020;19.916;2022-11-11T04:54:48;8.98;74.13
34303;DHT22;20785;50.020;19.916;2022-11-11T05:01:26;8.91;74.04
34303;DHT22;20785;50.020;19.916;2022-11-11T05:08:04;8.86;73.95
34303;DHT22;20785;50.020;19.916;2022-11-11T05:14:42;8.83;74.02
34303;DHT22;20785;50.020;19.916;2022-11-11T05:21:25;8.80;74.03
34303;DHT22;20785;50.020;19.916;2022-11-11T05:27:45;8.77;74.18
34303;DHT22;20785;50.020;19.916;2022-11-11T05:34:05;8.77;74.16
34303;DHT22;20785;50.020;19.916;2022-11-11T05:40:24;8.76;74.06
34303;DHT22;20785;50.020;19.916;2022-11-11T05:46:44;8.73;74.14
34303;DHT22;20785;50.020;19.916;2022-11-11T05:53:03;8.74;74.03
34303;DHT22;20785;50.020;19.916;2022-11-11T05:59:23;8.80;73.94
34303;DHT22;20785;50.020;19.916;2022-11-11T06:05:42;8.79;73.89
34303;DHT22;20785;50.020;19.916;2022-11-11T06:12:02;8.86;73.90
34303;DHT22;20785;50.020;19.916;2022-11-11T06:18:22;8.91;73.85
34303;DHT22;20785;50.020;19.916;2022-11-11T06:24:42;8.97;73.81
34303;DHT22;20785;50.020;19.916;2022-11-11T06:31:04;9.06;73.89
34303;DHT22;20785;50.020;19.916;2022-11-11T06:37:25;9.19;74.00
34303;DHT22;20785;50.020;19.916;2022-11-11T06:43:45;9.34;74.11
34303;DHT22;20785;50.020;19.916;2022-11-11T06:50:05;9.47;74.17
34303;DHT22;20785;50.020;19.916;2022-11-11T06:56:32;9.62;74.17
34303;DHT22;20785;50.020;19.916;2022-11-11T07:02:55;9.80;74.32
34303;DHT22;20785;50.020;19.916;2022-11-11T07:09:19;9.98;74.50
34303;DHT22;20785;50.020;19.916;2022-11-11T07:15:41;10.15;74.64
34303;DHT22;20785;50.020;19.916;2022-11-11T07:22:02;10.35;74.62
34303;DHT22;20785;50.020;19.916;2022-11-11T07:28:22;10.44;74.70
34303;DHT22;20785;50.020;19.916;2022-11-11T07:34:43;10.53;74.66
34303;DHT22;20785;50.020;19.916;2022-11-11T07:41:05;10.64;74.72
34303;DHT22;20785;50.020;19.916;2022-11-11T07:47:25;10.73;74.65
34303;DHT22;20785;50.020;19.916;2022-11-11T07:53:45;10.83;74.50
34303;DHT22;20785;50.020;19.916;2022-11-11T08:00:07;10.91;74.22
34303;DHT22;20785;50.020;19.916;2022-11-11T08:06:26;10.95;74.11
34303;DHT22;20785;50.020;19.916;2022-11-11T08:12:54;11.05;74.00
34303;DHT22;20785;50.020;19.916;2022-11-11T08:19:33;11.12;73.86
34303;DHT22;20785;50.020;19.916;2022-11-11T08:25:53;11.16;73.51
34303;DHT22;20785;50.020;19.916;2022-11-11T08:32:15;11.21;72.82
34303;DHT22;20785;50.020;19.916;2022-11-11T08:38:37;11.27;72.92
34303;DHT22;20785;50.020;19.916;2022-11-11T08:44:57;11.35;72.36
34303;DHT22;20785;50.020;19.916;2022-11-11T08:51:17;11.40;72.26
34303;DHT22;20785;50.020;19.916;2022-11-11T08:57:36;11.47;72.13
34303;DHT22;20785;50.020;19.916;2022-11-11T09:03:56;11.60;72.06
34303;DHT22;20785;50.020;19.916;2022-11-11T09:10:17;11.78;72.12
34303;DHT22;20785;50.020;19.916;2022-11-11T09:16:37;12.03;72.03
34303;DHT22;20785;50.020;19.916;2022-11-11T09:22:57;12.30;72.02
34303;DHT22;20785;50.020;19.916;2022-11-11T09:29:17;12.55;71.76
34303;DHT22;20785;50.020;19.916;2022-11-11T09:35:37;12.83;71.50
34303;DHT22;20785;50.020;19.916;2022-11-11T09:42:36;13.12;70.64
34303;DHT22;20785;50.020;19.916;2022-11-11T09:56:01;13.45;69.67
34303;DHT22;20785;50.020;19.916;2022-11-11T10:02:38;13.44;68.97
34303;DHT22;20785;50.020;19.916;2022-11-11T10:09:27;13.40;67.97
34303;DHT22;20785;50.020;19.916;2022-11-11T10:22:52;13.72;68.66
34303;DHT22;20785;50.020;19.916;2022-11-11T10:29:18;14.00;68.05
34303;DHT22;20785;50.020;19.916;2022-11-11T10:35:40;14.04;66.82
34303;DHT22;20785;50.020;19.916;2022-11-11T10:42:01;14.02;66.82
34303;DHT22;20785;50.020;19.916;2022-11-11T10:48:28;14.13;66.58
34303;DHT22;20785;50.020;19.916;2022-11-11T10:54:58;14.23;65.50
34303;DHT22;20785;50.020;19.916;2022-11-11T11:01:46;14.37;66.01
34303;DHT22;20785;50.020;19.916;2022-11-11T11:08:10;14.65;65.65
34303;DHT22;20785;50.020;19.916;2022-11-11T11:14:38;14.90;66.01
34303;DHT22;20785;50.020;19.916;2022-11-11T11:21:06;15.14;65.79
34303;DHT22;20785;50.020;19.916;2022-11-11T11:27:26;15.34;65.34
34303;DHT22;20785;50.020;19.916;2022-11-11T11:34:06;15.45;62.66
34303;DHT22;20785;50.020;19.916;2022-11-11T11:40:52;15.54;62.02
34303;DHT22;20785;50.020;19.916;2022-11-11T11:47:19;15.66;62.37
34303;DHT22;20785;50.020;19.916;2022-11-11T11:54:06;15.77;62.39
34303;DHT22;20785;50.020;19.916;2022-11-11T12:00:36;15.93;61.58
34303;DHT22;20785;50.020;19.916;2022-11-11T12:07:37;15.72;59.48
34303;DHT22;20785;50.020;19.916;2022-11-11T12:21:13;14.75;60.99
34303;DHT22;20785;50.020;19.916;2022-11-11T12:27:55;14.54;63.19
34303;DHT22;20785;50.020;19.916;2022-11-11T12:34:57;14.90;62.85
34303;DHT22;20785;50.020;19.916;2022-11-11T12:48:26;15.28;62.10
34303;DHT22;20785;50.020;19.916;2022-11-11T13:09:05;14.96;60.69
34303;DHT22;20785;50.020;19.916;2022-11-11T13:15:25;14.54;62.15
34303;DHT22;20785;50.020;19.916;2022-11-11T13:21:52;14.31;63.21
34303;DHT22;20785;50.020;19.916;2022-11-11T13:28:30;14.28;63.86
34303;DHT22;20785;50.020;19.916;2022-11-11T13:34:55;14.37;63.64
34303;DHT22;20785;50.020;19.916;2022-11-11T13:41:30;14.57;63.53
34303;DHT22;20785;50.020;19.916;2022-11-11T13:47:52;14.71;63.23
34303;DHT22;20785;50.020;19.916;2022-11-11T14:01:04;14.82;62.94
34303;DHT22;20785;50.020;19.916;2022-11-11T14:07:47;14.78;62.85
34303;DHT22;20785;50.020;19.916;2022-11-11T14:20:58;14.57;63.28
34303;DHT22;20785;50.020;19.916;2022-11-11T14:27:28;14.47;63.51
34303;DHT22;20785;50.020;19.916;2022-11-11T14:40:38;14.34;64.08
34303;DHT22;20785;50.020;19.916;2022-11-11T14:53:39;14.19;64.46
34303;DHT22;20785;50.020;19.916;2022-11-11T15:00:09;14.10;64.41
34303;DHT22;20785;50.020;19.916;2022-11-11T15:06:44;14.00;64.63
34303;DHT22;20785;50.020;19.916;2022-11-11T15:20:24;13.68;65.10
34303;DHT22;20785;50.020;19.916;2022-11-11T15:27:04;13.57;65.27
34303;DHT22;20785;50.020;19.916;2022-11-11T15:40:23;13.47;65.52
34303;DHT22;20785;50.020;19.916;2022-11-11T15:46:40;13.40;65.59
34303;DHT22;20785;50.020;19.916;2022-11-11T15:53:02;13.34;65.64
34303;DHT22;20785;50.020;19.916;2022-11-11T15:59:28;13.27;65.71
34303;DHT22;20785;50.020;19.916;2022-11-11T16:05:45;13.17;65.80
34303;DHT22;20785;50.020;19.916;2022-11-11T16:12:09;13.09;65.90
34303;DHT22;20785;50.020;19.916;2022-11-11T16:18:38;12.98;65.99
34303;DHT22;20785;50.020;19.916;2022-11-11T16:24:58;12.91;66.05
34303;DHT22;20785;50.020;19.916;2022-11-11T16:31:37;12.78;66.11
34303;DHT22;20785;50.020;19.916;2022-11-11T16:38:01;12.64;66.25
34303;DHT22;20785;50.020;19.916;2022-11-11T16:44:37;12.51;66.50
34303;DHT22;20785;50.020;19.916;2022-11-11T16:51:10;12.39;66.77
34303;DHT22;20785;50.020;19.916;2022-11-11T16:57:30;12.30;67.03
34303;DHT22;20785;50.020;19.916;2022-11-11T17:04:00;12.26;67.25
34303;DHT22;20785;50.020;19.916;2022-11-11T17:10:21;12.22;67.58
34303;DHT22;20785;50.020;19.916;2022-11-11T17:16:42;12.20;67.73
34303;DHT22;20785;50.020;19.916;2022-11-11T17:23:02;12.20;67.88
34303;DHT22;20785;50.020;19.916;2022-11-11T17:29:24;12.22;68.13
34303;DHT22;20785;50.020;19.916;2022-11-11T17:35:54;12.18;68.81
34303;DHT22;20785;50.020;19.916;2022-11-11T17:42:13;12.10;69.06
34303;DHT22;20785;50.020;19.916;2022-11-11T17:49:13;12.05;69.26
34303;DHT22;20785;50.020;19.916;2022-11-11T17:56:04;12.01;69.41
34303;DHT22;20785;50.020;19.916;2022-11-11T18:02:48;11.95;70.10
34303;DHT22;20785;50.020;19.916;2022-11-11T18:09:11;11.89;70.15
34303;DHT22;20785;50.020;19.916;2022-11-11T18:37:06;11.80;70.33
34303;DHT22;20785;50.020;19.916;2022-11-11T18:43:35;11.80;70.33
34303;DHT22;20785;50.020;19.916;2022-11-11T18:49:57;11.75;70.59
34303;DHT22;20785;50.020;19.916;2022-11-11T18:56:20;11.73;70.43
34303;DHT22;20785;50.020;19.916;2022-11-11T19:02:40;11.71;70.68
34303;DHT22;20785;50.020;19.916;2022-11-11T19:09:15;11.68;70.61
34303;DHT22;20785;50.020;19.916;2022-11-11T19:15:42;11.68;70.71
34303;DHT22;20785;50.020;19.916;2022-11-11T19:22:09;11.64;70.69
34303;DHT22;20785;50.020;19.916;2022-11-11T19:28:38;11.61;70.64
34303;DHT22;20785;50.020;19.916;2022-11-11T19:34:58;11.61;70.64
34303;DHT22;20785;50.020;19.916;2022-11-11T19:41:24;11.61;70.71
34303;DHT22;20785;50.020;19.916;2022-11-11T19:47:49;11.61;70.68
34303;DHT22;20785;50.020;19.916;2022-11-11T19:54:10;11.60;70.64
34303;DHT22;20785;50.020;19.916;2022-11-11T20:00:32;11.60;70.74
34303;DHT22;20785;50.020;19.916;2022-11-11T20:06:52;11.63;70.78
34303;DHT22;20785;50.020;19.916;2022-11-11T20:13:12;11.60;70.60
34303;DHT22;20785;50.020;19.916;2022-11-11T20:19:35;11.58;70.50
34303;DHT22;20785;50.020;19.916;2022-11-11T20:25:55;11.61;70.50
34303;DHT22;20785;50.020;19.916;2022-11-11T20:32:16;11.54;70.50
34303;DHT22;20785;50.020;19.916;2022-11-11T20:38:36;11.42;70.46
34303;DHT22;20785;50.020;19.916;2022-11-11T20:44:57;11.29;70.65
34303;DHT22;20785;50.020;19.916;2022-11-11T20:51:23;11.16;70.70
34303;DHT22;20785;50.020;19.916;2022-11-11T20:57:43;11.04;70.92
34303;DHT22;20785;50.020;19.916;2022-11-11T21:04:03;10.91;71.07
34303;DHT22;20785;50.020;19.916;2022-11-11T21:10:23;10.76;71.81
34303;DHT22;20785;50.020;19.916;2022-11-11T21:16:43;10.67;71.93
34303;DHT22;20785;50.020;19.916;2022-11-11T21:23:03;10.59;72.69
34303;DHT22;20785;50.020;19.916;2022-11-11T21:29:23;10.49;72.07
34303;DHT22;20785;50.020;19.916;2022-11-11T21:35:43;10.47;72.05
34303;DHT22;20785;50.020;19.916;2022-11-11T21:42:04;10.46;72.07
34303;DHT22;20785;50.020;19.916;2022-11-11T21:48:24;10.44;72.16
34303;DHT22;20785;50.020;19.916;2022-11-11T21:54:46;10.43;72.00
34303;DHT22;20785;50.020;19.916;2022-11-11T22:01:16;10.43;71.93
34303;DHT22;20785;50.020;19.916;2022-11-11T22:07:36;10.43;71.83
34303;DHT22;20785;50.020;19.916;2022-11-11T22:14:00;10.42;71.72
34303;DHT22;20785;50.020;19.916;2022-11-11T22:20:21;10.42;72.18
34303;DHT22;20785;50.020;19.916;2022-11-11T22:26:42;10.40;72.47
34303;DHT22;20785;50.020;19.916;2022-11-11T22:33:01;10.40;72.12
34303;DHT22;20785;50.020;19.916;2022-11-11T22:39:24;10.43;71.84
34303;DHT22;20785;50.020;19.916;2022-11-11T22:45:58;10.43;71.65
34303;DHT22;20785;50.020;19.916;2022-11-11T22:52:18;10.43;71.60
34303;DHT22;20785;50.020;19.916;2022-11-11T22:58:40;10.42;71.43
34303;DHT22;20785;50.020;19.916;2022-11-11T23:05:05;10.43;71.47
34303;DHT22;20785;50.020;19.916;2022-11-11T23:11:34;10.43;71.31
34303;DHT22;20785;50.020;19.916;2022-11-11T23:17:56;10.42;71.23
34303;DHT22;20785;50.020;19.916;2022-11-11T23:24:18;10.42;71.20
34303;DHT22;20785;50.020;19.916;2022-11-11T23:30:38;10.42;71.05
34303;DHT22;20785;50.020;19.916;2022-11-11T23:36:58;10.42;70.88
34303;DHT22;20785;50.020;19.916;2022-11-11T23:43:18;10.35;70.80
34303;DHT22;20785;50.020;19.916;2022-11-11T23:49:38;10.28;70.75
34303;DHT22;20785;50.020;19.916;2022-11-11T23:55:58;10.18;70.68
